sensor_id;sensor_type;location;lat;lon;timestamp;P1;durP1;ratioP1;P2;durP2;ratioP2
57333;SDS011;43165;50.998;18.164;2022-09-01T00:01:52;7.50;;;5.60;;
57333;SDS011;43165;50.998;18.164;2022-09-01T00:04:19;8.80;;;5.40;;
57333;SDS011;43165;50.998;18.164;2022-09-01T00:06:47;9.20;;;5.60;;
57333;SDS011;43165;50.998;18.164;2022-09-01T00:09:15;7.00;;;5.30;;
57333;SDS011;43165;50.998;18.164;2022-09-01T00:11:43;9.00;;;5.30;;
57333;SDS011;43165;50.998;18.164;2022-09-01T00:14:11;9.10;;;5.60;;
57333;SDS011;43165;50.998;18.164;2022-09-01T00:16:37;8.30;;;5.70;;
57333;SDS011;43165;50.998;18.164;2022-09-01T00:19:03;8.90;;;5.10;;
57333;SDS011;43165;50.998;18.164;2022-09-01T00:21:33;8.00;;;5.70;;
57333;SDS011;43165;50.998;18.164;2022-09-01T00:24:01;9.70;;;5.50;;
57333;SDS011;43165;50.998;18.164;2022-09-01T00:26:27;9.20;;;5.60;;
57333;SDS011;43165;50.998;18.164;2022-09-01T00:28:53;9.60;;;5.30;;
57333;SDS011;43165;50.998;18.164;2022-09-01T00:31:19;9.50;;;5.60;;
57333;SDS011;43165;50.998;18.164;2022-09-01T00:33:46;6.30;;;5.50;;
57333;SDS011;43165;50.998;18.164;2022-09-01T00:36:13;9.10;;;5.70;;
57333;SDS011;43165;50.998;18.164;2022-09-01T00:38:39;7.00;;;5.80;;
57333;SDS011;43165;50.998;18.164;2022-09-01T00:41:06;8.50;;;5.40;;
57333;SDS011;43165;50.998;18.164;2022-09-01T00:46:04;6.90;;;5.60;;
57333;SDS011;43165;50.998;18.164;2022-09-01T00:48:33;11.50;;;5.30;;
57333;SDS011;43165;50.998;18.164;2022-09-01T00:50:59;8.10;;;5.40;;
57333;SDS011;43165;50.998;18.164;2022-09-01T00:53:25;11.90;;;5.50;;
57333;SDS011;43165;50.998;18.164;2022-09-01T00:55:51;8.10;;;5.90;;
57333;SDS011;43165;50.998;18.164;2022-09-01T00:58:17;9.90;;;5.80;;
57333;SDS011;43165;50.998;18.164;2022-09-01T01:00:42;9.00;;;5.50;;
57333;SDS011;43165;50.998;18.164;2022-09-01T01:03:11;8.70;;;5.40;;
57333;SDS011;43165;50.998;18.164;2022-09-01T01:05:40;7.00;;;5.50;;
57333;SDS011;43165;50.998;18.164;2022-09-01T01:08:21;9.20;;;5.90;;
57333;SDS011;43165;50.998;18.164;2022-09-01T01:11:05;8.80;;;5.70;;
57333;SDS011;43165;50.998;18.164;2022-09-01T01:13:47;13.50;;;5.70;;
57333;SDS011;43165;50.998;18.164;2022-09-01T01:16:14;6.30;;;5.50;;
57333;SDS011;43165;50.998;18.164;2022-09-01T01:18:41;6.90;;;5.70;;
57333;SDS011;43165;50.998;18.164;2022-09-01T01:21:07;7.40;;;5.80;;
57333;SDS011;43165;50.998;18.164;2022-09-01T01:24:00;7.80;;;5.70;;
57333;SDS011;43165;50.998;18.164;2022-09-01T01:26:30;10.60;;;5.90;;
57333;SDS011;43165;50.998;18.164;2022-09-01T01:28:56;7.10;;;5.40;;
57333;SDS011;43165;50.998;18.164;2022-09-01T01:31:22;9.40;;;5.90;;
57333;SDS011;43165;50.998;18.164;2022-09-01T01:33:50;11.50;;;6.60;;
57333;SDS011;43165;50.998;18.164;2022-09-01T01:36:21;6.50;;;5.70;;
57333;SDS011;43165;50.998;18.164;2022-09-01T01:39:00;5.80;;;5.30;;
57333;SDS011;43165;50.998;18.164;2022-09-01T01:41:32;9.60;;;5.30;;
57333;SDS011;43165;50.998;18.164;2022-09-01T01:44:00;9.00;;;5.50;;
57333;SDS011;43165;50.998;18.164;2022-09-01T01:46:29;8.90;;;5.20;;
57333;SDS011;43165;50.998;18.164;2022-09-01T01:48:56;8.00;;;5.10;;
57333;SDS011;43165;50.998;18.164;2022-09-01T01:51:22;9.10;;;5.20;;
57333;SDS011;43165;50.998;18.164;2022-09-01T01:53:52;6.20;;;4.70;;
57333;SDS011;43165;50.998;18.164;2022-09-01T01:56:18;5.20;;;4.70;;
57333;SDS011;43165;50.998;18.164;2022-09-01T01:58:44;6.10;;;4.90;;
57333;SDS011;43165;50.998;18.164;2022-09-01T02:01:10;6.40;;;4.80;;
57333;SDS011;43165;50.998;18.164;2022-09-01T02:03:37;7.30;;;4.60;;
57333;SDS011;43165;50.998;18.164;2022-09-01T02:06:04;8.80;;;4.70;;
57333;SDS011;43165;50.998;18.164;2022-09-01T02:08:32;8.90;;;4.40;;
57333;SDS011;43165;50.998;18.164;2022-09-01T02:11:00;5.30;;;4.10;;
57333;SDS011;43165;50.998;18.164;2022-09-01T02:13:26;7.50;;;4.20;;
57333;SDS011;43165;50.998;18.164;2022-09-01T02:15:58;5.60;;;4.20;;
57333;SDS011;43165;50.998;18.164;2022-09-01T02:18:32;5.00;;;3.70;;
57333;SDS011;43165;50.998;18.164;2022-09-01T02:21:03;5.90;;;4.10;;
57333;SDS011;43165;50.998;18.164;2022-09-01T02:23:34;6.30;;;3.80;;
57333;SDS011;43165;50.998;18.164;2022-09-01T02:26:00;5.40;;;3.50;;
57333;SDS011;43165;50.998;18.164;2022-09-01T02:28:27;7.50;;;3.80;;
57333;SDS011;43165;50.998;18.164;2022-09-01T02:30:55;4.60;;;3.40;;
57333;SDS011;43165;50.998;18.164;2022-09-01T02:33:22;7.70;;;3.50;;
57333;SDS011;43165;50.998;18.164;2022-09-01T02:35:49;4.10;;;3.30;;
57333;SDS011;43165;50.998;18.164;2022-09-01T02:38:16;4.70;;;3.40;;
57333;SDS011;43165;50.998;18.164;2022-09-01T02:40:42;9.80;;;3.40;;
57333;SDS011;43165;50.998;18.164;2022-09-01T02:43:09;4.30;;;3.30;;
57333;SDS011;43165;50.998;18.164;2022-09-01T02:45:39;3.60;;;3.30;;
57333;SDS011;43165;50.998;18.164;2022-09-01T02:48:09;4.10;;;3.50;;
57333;SDS011;43165;50.998;18.164;2022-09-01T02:50:35;5.40;;;3.40;;
57333;SDS011;43165;50.998;18.164;2022-09-01T02:53:02;3.50;;;3.20;;
57333;SDS011;43165;50.998;18.164;2022-09-01T02:55:31;6.00;;;3.60;;
57333;SDS011;43165;50.998;18.164;2022-09-01T02:57:56;6.00;;;3.70;;
57333;SDS011;43165;50.998;18.164;2022-09-01T03:00:22;4.20;;;3.40;;
57333;SDS011;43165;50.998;18.164;2022-09-01T03:02:54;8.00;;;3.70;;
57333;SDS011;43165;50.998;18.164;2022-09-01T03:05:21;5.20;;;3.50;;
57333;SDS011;43165;50.998;18.164;2022-09-01T03:07:52;6.00;;;3.60;;
57333;SDS011;43165;50.998;18.164;2022-09-01T03:10:24;4.90;;;3.60;;
57333;SDS011;43165;50.998;18.164;2022-09-01T03:12:55;5.90;;;3.80;;
57333;SDS011;43165;50.998;18.164;2022-09-01T03:15:20;4.30;;;3.50;;
57333;SDS011;43165;50.998;18.164;2022-09-01T03:17:47;7.30;;;3.40;;
57333;SDS011;43165;50.998;18.164;2022-09-01T03:20:14;4.40;;;4.00;;
57333;SDS011;43165;50.998;18.164;2022-09-01T03:22:40;5.50;;;3.80;;
57333;SDS011;43165;50.998;18.164;2022-09-01T03:25:08;6.10;;;3.80;;
57333;SDS011;43165;50.998;18.164;2022-09-01T03:27:34;5.10;;;3.90;;
57333;SDS011;43165;50.998;18.164;2022-09-01T03:29:59;6.60;;;3.80;;
57333;SDS011;43165;50.998;18.164;2022-09-01T03:32:25;4.60;;;3.50;;
57333;SDS011;43165;50.998;18.164;2022-09-01T03:34:50;6.00;;;3.70;;
57333;SDS011;43165;50.998;18.164;2022-09-01T03:37:16;5.00;;;3.70;;
57333;SDS011;43165;50.998;18.164;2022-09-01T03:39:43;6.00;;;3.70;;
57333;SDS011;43165;50.998;18.164;2022-09-01T03:42:08;5.90;;;3.70;;
57333;SDS011;43165;50.998;18.164;2022-09-01T03:44:36;4.90;;;4.10;;
57333;SDS011;43165;50.998;18.164;2022-09-01T03:47:04;5.10;;;3.70;;
57333;SDS011;43165;50.998;18.164;2022-09-01T03:49:34;4.10;;;3.70;;
57333;SDS011;43165;50.998;18.164;2022-09-01T03:52:01;4.50;;;3.80;;
57333;SDS011;43165;50.998;18.164;2022-09-01T03:54:31;5.60;;;3.70;;
57333;SDS011;43165;50.998;18.164;2022-09-01T03:56:57;6.60;;;3.90;;
57333;SDS011;43165;50.998;18.164;2022-09-01T03:59:29;4.80;;;3.90;;
57333;SDS011;43165;50.998;18.164;2022-09-01T04:01:55;5.40;;;4.10;;
57333;SDS011;43165;50.998;18.164;2022-09-01T04:04:25;8.80;;;3.80;;
57333;SDS011;43165;50.998;18.164;2022-09-01T04:06:50;5.20;;;3.40;;
57333;SDS011;43165;50.998;18.164;2022-09-01T04:09:16;4.30;;;3.90;;
57333;SDS011;43165;50.998;18.164;2022-09-01T04:11:42;4.50;;;3.80;;
57333;SDS011;43165;50.998;18.164;2022-09-01T04:14:10;4.70;;;3.70;;
57333;SDS011;43165;50.998;18.164;2022-09-01T04:16:37;6.20;;;3.70;;
57333;SDS011;43165;50.998;18.164;2022-09-01T04:19:22;5.20;;;3.80;;
57333;SDS011;43165;50.998;18.164;2022-09-01T04:22:00;4.60;;;4.00;;
57333;SDS011;43165;50.998;18.164;2022-09-01T04:24:27;7.30;;;3.90;;
57333;SDS011;43165;50.998;18.164;2022-09-01T04:26:54;5.40;;;3.60;;
57333;SDS011;43165;50.998;18.164;2022-09-01T04:29:23;4.80;;;3.60;;
57333;SDS011;43165;50.998;18.164;2022-09-01T04:31:53;5.80;;;4.20;;
57333;SDS011;43165;50.998;18.164;2022-09-01T04:34:21;6.50;;;4.00;;
57333;SDS011;43165;50.998;18.164;2022-09-01T04:36:46;4.90;;;3.90;;
57333;SDS011;43165;50.998;18.164;2022-09-01T04:39:13;8.80;;;4.70;;
57333;SDS011;43165;50.998;18.164;2022-09-01T04:41:40;7.90;;;4.40;;
57333;SDS011;43165;50.998;18.164;2022-09-01T04:44:08;5.60;;;4.30;;
57333;SDS011;43165;50.998;18.164;2022-09-01T04:46:36;7.80;;;4.10;;
57333;SDS011;43165;50.998;18.164;2022-09-01T04:49:07;9.80;;;4.00;;
57333;SDS011;43165;50.998;18.164;2022-09-01T04:51:40;6.60;;;3.80;;
57333;SDS011;43165;50.998;18.164;2022-09-01T04:54:07;4.00;;;3.60;;
57333;SDS011;43165;50.998;18.164;2022-09-01T04:56:39;8.20;;;4.30;;
57333;SDS011;43165;50.998;18.164;2022-09-01T04:59:06;5.10;;;3.40;;
57333;SDS011;43165;50.998;18.164;2022-09-01T05:01:33;7.40;;;3.80;;
57333;SDS011;43165;50.998;18.164;2022-09-01T05:04:13;6.90;;;3.90;;
57333;SDS011;43165;50.998;18.164;2022-09-01T05:06:43;6.10;;;3.70;;
57333;SDS011;43165;50.998;18.164;2022-09-01T05:09:10;6.90;;;4.10;;
57333;SDS011;43165;50.998;18.164;2022-09-01T05:11:38;5.70;;;3.90;;
57333;SDS011;43165;50.998;18.164;2022-09-01T05:14:10;9.10;;;3.50;;
57333;SDS011;43165;50.998;18.164;2022-09-01T05:16:37;5.20;;;3.80;;
57333;SDS011;43165;50.998;18.164;2022-09-01T05:19:05;7.60;;;3.60;;
57333;SDS011;43165;50.998;18.164;2022-09-01T05:21:39;6.40;;;3.40;;
57333;SDS011;43165;50.998;18.164;2022-09-01T05:24:10;5.80;;;3.10;;
57333;SDS011;43165;50.998;18.164;2022-09-01T05:26:39;4.00;;;3.50;;
57333;SDS011;43165;50.998;18.164;2022-09-01T05:29:06;5.40;;;3.40;;
57333;SDS011;43165;50.998;18.164;2022-09-01T05:31:38;7.20;;;3.80;;
57333;SDS011;43165;50.998;18.164;2022-09-01T05:34:05;4.70;;;3.30;;
57333;SDS011;43165;50.998;18.164;2022-09-01T05:36:34;7.10;;;3.20;;
57333;SDS011;43165;50.998;18.164;2022-09-01T05:39:01;4.90;;;3.20;;
57333;SDS011;43165;50.998;18.164;2022-09-01T05:41:29;7.30;;;3.40;;
57333;SDS011;43165;50.998;18.164;2022-09-01T05:43:55;4.10;;;3.30;;
57333;SDS011;43165;50.998;18.164;2022-09-01T05:46:22;4.90;;;3.20;;
57333;SDS011;43165;50.998;18.164;2022-09-01T05:48:51;3.50;;;3.10;;
57333;SDS011;43165;50.998;18.164;2022-09-01T05:51:23;6.30;;;3.00;;
57333;SDS011;43165;50.998;18.164;2022-09-01T05:53:51;3.90;;;2.80;;
57333;SDS011;43165;50.998;18.164;2022-09-01T05:56:20;4.60;;;2.90;;
57333;SDS011;43165;50.998;18.164;2022-09-01T05:58:48;4.40;;;2.80;;
57333;SDS011;43165;50.998;18.164;2022-09-01T06:01:18;4.20;;;2.90;;
57333;SDS011;43165;50.998;18.164;2022-09-01T06:03:49;13.30;;;2.90;;
57333;SDS011;43165;50.998;18.164;2022-09-01T06:06:20;3.80;;;2.50;;
57333;SDS011;43165;50.998;18.164;2022-09-01T06:08:48;3.30;;;2.20;;
57333;SDS011;43165;50.998;18.164;2022-09-01T06:11:15;3.60;;;2.10;;
57333;SDS011;43165;50.998;18.164;2022-09-01T06:13:42;2.60;;;1.80;;
57333;SDS011;43165;50.998;18.164;2022-09-01T06:16:12;3.90;;;2.10;;
57333;SDS011;43165;50.998;18.164;2022-09-01T06:18:39;6.30;;;2.10;;
57333;SDS011;43165;50.998;18.164;2022-09-01T06:21:07;4.50;;;2.00;;
57333;SDS011;43165;50.998;18.164;2022-09-01T06:23:36;3.50;;;2.00;;
57333;SDS011;43165;50.998;18.164;2022-09-01T06:26:02;3.60;;;2.00;;
57333;SDS011;43165;50.998;18.164;2022-09-01T06:28:27;2.10;;;1.90;;
57333;SDS011;43165;50.998;18.164;2022-09-01T06:30:54;11.20;;;2.20;;
57333;SDS011;43165;50.998;18.164;2022-09-01T06:33:22;5.30;;;2.00;;
57333;SDS011;43165;50.998;18.164;2022-09-01T06:35:50;4.90;;;2.00;;
57333;SDS011;43165;50.998;18.164;2022-09-01T06:38:17;5.10;;;1.50;;
57333;SDS011;43165;50.998;18.164;2022-09-01T06:40:43;3.70;;;1.60;;
57333;SDS011;43165;50.998;18.164;2022-09-01T06:43:09;2.60;;;1.80;;
57333;SDS011;43165;50.998;18.164;2022-09-01T06:45:44;3.70;;;1.60;;
57333;SDS011;43165;50.998;18.164;2022-09-01T06:48:14;3.80;;;1.50;;
57333;SDS011;43165;50.998;18.164;2022-09-01T06:50:40;2.80;;;1.50;;
57333;SDS011;43165;50.998;18.164;2022-09-01T06:53:07;3.70;;;1.60;;
57333;SDS011;43165;50.998;18.164;2022-09-01T06:55:38;2.90;;;1.40;;
57333;SDS011;43165;50.998;18.164;2022-09-01T06:58:05;2.50;;;1.50;;
57333;SDS011;43165;50.998;18.164;2022-09-01T07:00:35;2.90;;;1.20;;
57333;SDS011;43165;50.998;18.164;2022-09-01T07:03:06;4.30;;;1.10;;
57333;SDS011;43165;50.998;18.164;2022-09-01T07:05:38;3.10;;;1.20;;
57333;SDS011;43165;50.998;18.164;2022-09-01T07:08:05;1.80;;;1.10;;
57333;SDS011;43165;50.998;18.164;2022-09-01T07:10:39;2.30;;;1.10;;
57333;SDS011;43165;50.998;18.164;2022-09-01T07:13:09;1.10;;;0.90;;
57333;SDS011;43165;50.998;18.164;2022-09-01T07:15:38;2.10;;;0.90;;
57333;SDS011;43165;50.998;18.164;2022-09-01T07:18:05;8.50;;;1.10;;
57333;SDS011;43165;50.998;18.164;2022-09-01T07:20:31;3.50;;;1.10;;
57333;SDS011;43165;50.998;18.164;2022-09-01T07:23:04;6.30;;;0.90;;
57333;SDS011;43165;50.998;18.164;2022-09-01T07:25:30;5.70;;;1.40;;
57333;SDS011;43165;50.998;18.164;2022-09-01T07:27:59;2.50;;;1.10;;
57333;SDS011;43165;50.998;18.164;2022-09-01T07:30:25;2.40;;;0.90;;
57333;SDS011;43165;50.998;18.164;2022-09-01T07:32:51;2.90;;;0.90;;
57333;SDS011;43165;50.998;18.164;2022-09-01T07:35:19;1.00;;;0.80;;
57333;SDS011;43165;50.998;18.164;2022-09-01T07:37:47;1.40;;;0.80;;
57333;SDS011;43165;50.998;18.164;2022-09-01T07:40:17;3.30;;;0.90;;
57333;SDS011;43165;50.998;18.164;2022-09-01T07:42:45;2.80;;;0.80;;
57333;SDS011;43165;50.998;18.164;2022-09-01T07:45:12;5.90;;;1.10;;
57333;SDS011;43165;50.998;18.164;2022-09-01T07:47:41;1.60;;;0.90;;
57333;SDS011;43165;50.998;18.164;2022-09-01T07:50:09;5.00;;;1.30;;
57333;SDS011;43165;50.998;18.164;2022-09-01T07:52:38;2.80;;;1.40;;
57333;SDS011;43165;50.998;18.164;2022-09-01T07:55:07;2.10;;;1.10;;
57333;SDS011;43165;50.998;18.164;2022-09-01T07:57:37;3.30;;;1.00;;
57333;SDS011;43165;50.998;18.164;2022-09-01T08:00:10;1.50;;;1.00;;
57333;SDS011;43165;50.998;18.164;2022-09-01T08:02:37;2.90;;;0.80;;
57333;SDS011;43165;50.998;18.164;2022-09-01T08:05:09;2.30;;;0.70;;
57333;SDS011;43165;50.998;18.164;2022-09-01T08:07:36;3.10;;;0.70;;
57333;SDS011;43165;50.998;18.164;2022-09-01T08:10:05;3.60;;;1.00;;
57333;SDS011;43165;50.998;18.164;2022-09-01T08:12:32;2.30;;;1.10;;
57333;SDS011;43165;50.998;18.164;2022-09-01T08:15:02;1.40;;;0.70;;
57333;SDS011;43165;50.998;18.164;2022-09-01T08:17:29;1.20;;;0.70;;
57333;SDS011;43165;50.998;18.164;2022-09-01T08:19:55;1.60;;;0.80;;
57333;SDS011;43165;50.998;18.164;2022-09-01T08:22:20;6.50;;;0.70;;
57333;SDS011;43165;50.998;18.164;2022-09-01T08:24:48;1.70;;;0.50;;
57333;SDS011;43165;50.998;18.164;2022-09-01T08:27:14;3.10;;;0.90;;
57333;SDS011;43165;50.998;18.164;2022-09-01T08:29:40;4.40;;;0.80;;
57333;SDS011;43165;50.998;18.164;2022-09-01T08:32:06;1.50;;;0.60;;
57333;SDS011;43165;50.998;18.164;2022-09-01T08:34:32;1.30;;;0.50;;
57333;SDS011;43165;50.998;18.164;2022-09-01T08:36:58;1.20;;;0.70;;
57333;SDS011;43165;50.998;18.164;2022-09-01T08:39:24;3.60;;;0.70;;
57333;SDS011;43165;50.998;18.164;2022-09-01T08:44:39;1.40;;;0.70;;
57333;SDS011;43165;50.998;18.164;2022-09-01T08:47:11;3.90;;;0.70;;
57333;SDS011;43165;50.998;18.164;2022-09-01T08:49:38;1.20;;;0.60;;
57333;SDS011;43165;50.998;18.164;2022-09-01T08:54:47;1.90;;;0.60;;
57333;SDS011;43165;50.998;18.164;2022-09-01T08:57:20;3.80;;;0.70;;
57333;SDS011;43165;50.998;18.164;2022-09-01T08:59:48;1.20;;;0.60;;
57333;SDS011;43165;50.998;18.164;2022-09-01T09:02:19;1.60;;;0.70;;
57333;SDS011;43165;50.998;18.164;2022-09-01T09:07:57;1.40;;;0.50;;
57333;SDS011;43165;50.998;18.164;2022-09-01T09:10:29;1.70;;;0.60;;
57333;SDS011;43165;50.998;18.164;2022-09-01T09:13:31;3.30;;;0.60;;
57333;SDS011;43165;50.998;18.164;2022-09-01T09:16:08;1.80;;;0.40;;
57333;SDS011;43165;50.998;18.164;2022-09-01T09:18:46;1.30;;;0.50;;
57333;SDS011;43165;50.998;18.164;2022-09-01T09:26:51;1.50;;;0.50;;
57333;SDS011;43165;50.998;18.164;2022-09-01T09:29:17;2.50;;;0.40;;
57333;SDS011;43165;50.998;18.164;2022-09-01T09:31:44;1.50;;;0.70;;
57333;SDS011;43165;50.998;18.164;2022-09-01T09:36:43;1.20;;;0.40;;
57333;SDS011;43165;50.998;18.164;2022-09-01T09:39:12;4.30;;;0.60;;
57333;SDS011;43165;50.998;18.164;2022-09-01T09:41:41;2.30;;;0.50;;
57333;SDS011;43165;50.998;18.164;2022-09-01T09:44:18;3.10;;;0.50;;
57333;SDS011;43165;50.998;18.164;2022-09-01T09:46:55;1.00;;;0.50;;
57333;SDS011;43165;50.998;18.164;2022-09-01T09:49:29;1.40;;;0.50;;
57333;SDS011;43165;50.998;18.164;2022-09-01T09:54:59;2.30;;;0.50;;
57333;SDS011;43165;50.998;18.164;2022-09-01T09:57:29;4.30;;;0.50;;
57333;SDS011;43165;50.998;18.164;2022-09-01T10:00:00;3.10;;;0.50;;
57333;SDS011;43165;50.998;18.164;2022-09-01T10:02:34;0.90;;;0.40;;
57333;SDS011;43165;50.998;18.164;2022-09-01T10:07:59;3.50;;;0.40;;
57333;SDS011;43165;50.998;18.164;2022-09-01T10:13:13;3.30;;;0.40;;
57333;SDS011;43165;50.998;18.164;2022-09-01T10:15:51;1.30;;;0.30;;
57333;SDS011;43165;50.998;18.164;2022-09-01T10:18:20;0.90;;;0.40;;
57333;SDS011;43165;50.998;18.164;2022-09-01T10:20:50;0.70;;;0.30;;
57333;SDS011;43165;50.998;18.164;2022-09-01T10:23:19;1.00;;;0.50;;
57333;SDS011;43165;50.998;18.164;2022-09-01T10:25:45;2.50;;;0.40;;
57333;SDS011;43165;50.998;18.164;2022-09-01T10:28:15;1.00;;;0.40;;
57333;SDS011;43165;50.998;18.164;2022-09-01T10:30:43;0.90;;;0.40;;
57333;SDS011;43165;50.998;18.164;2022-09-01T10:33:13;1.50;;;0.50;;
57333;SDS011;43165;50.998;18.164;2022-09-01T10:35:42;4.00;;;0.50;;
57333;SDS011;43165;50.998;18.164;2022-09-01T10:38:13;1.80;;;0.40;;
57333;SDS011;43165;50.998;18.164;2022-09-01T10:40:41;0.60;;;0.30;;
57333;SDS011;43165;50.998;18.164;2022-09-01T10:43:23;2.90;;;0.30;;
57333;SDS011;43165;50.998;18.164;2022-09-01T10:45:51;2.50;;;0.50;;
57333;SDS011;43165;50.998;18.164;2022-09-01T10:50:43;2.90;;;0.50;;
57333;SDS011;43165;50.998;18.164;2022-09-01T11:04:08;1.30;;;0.40;;
57333;SDS011;43165;50.998;18.164;2022-09-01T11:07:02;1.30;;;0.30;;
57333;SDS011;43165;50.998;18.164;2022-09-01T11:09:39;1.40;;;0.30;;
57333;SDS011;43165;50.998;18.164;2022-09-01T11:14:54;2.70;;;0.40;;
57333;SDS011;43165;50.998;18.164;2022-09-01T11:36:01;2.80;;;1.20;;
57333;SDS011;43165;50.998;18.164;2022-09-01T11:44:12;1.00;;;0.40;;
57333;SDS011;43165;50.998;18.164;2022-09-01T11:46:39;0.40;;;0.30;;
57333;SDS011;43165;50.998;18.164;2022-09-01T11:49:17;1.40;;;0.70;;
57333;SDS011;43165;50.998;18.164;2022-09-01T11:51:52;1.50;;;0.60;;
57333;SDS011;43165;50.998;18.164;2022-09-01T11:54:18;21.30;;;19.10;;
57333;SDS011;43165;50.998;18.164;2022-09-01T11:56:43;8.40;;;7.70;;
57333;SDS011;43165;50.998;18.164;2022-09-01T11:59:09;2.00;;;1.80;;
57333;SDS011;43165;50.998;18.164;2022-09-01T12:01:35;2.80;;;0.90;;
57333;SDS011;43165;50.998;18.164;2022-09-01T12:04:23;0.90;;;0.50;;
57333;SDS011;43165;50.998;18.164;2022-09-01T12:07:00;1.70;;;0.90;;
57333;SDS011;43165;50.998;18.164;2022-09-01T12:09:32;3.50;;;0.80;;
57333;SDS011;43165;50.998;18.164;2022-09-01T12:11:59;1.30;;;0.90;;
57333;SDS011;43165;50.998;18.164;2022-09-01T12:14:25;4.60;;;3.10;;
57333;SDS011;43165;50.998;18.164;2022-09-01T12:16:56;1.70;;;0.70;;
57333;SDS011;43165;50.998;18.164;2022-09-01T12:19:29;0.80;;;0.60;;
57333;SDS011;43165;50.998;18.164;2022-09-01T12:22:01;1.60;;;0.50;;
57333;SDS011;43165;50.998;18.164;2022-09-01T12:24:49;1.00;;;0.50;;
57333;SDS011;43165;50.998;18.164;2022-09-01T12:27:16;1.00;;;0.50;;
57333;SDS011;43165;50.998;18.164;2022-09-01T12:29:42;1.10;;;0.70;;
57333;SDS011;43165;50.998;18.164;2022-09-01T12:32:08;1.60;;;1.00;;
57333;SDS011;43165;50.998;18.164;2022-09-01T12:39:38;0.60;;;0.50;;
57333;SDS011;43165;50.998;18.164;2022-09-01T12:42:06;1.40;;;0.40;;
57333;SDS011;43165;50.998;18.164;2022-09-01T12:47:04;0.70;;;0.50;;
57333;SDS011;43165;50.998;18.164;2022-09-01T12:49:41;1.20;;;0.50;;
57333;SDS011;43165;50.998;18.164;2022-09-01T12:54:53;1.30;;;0.30;;
57333;SDS011;43165;50.998;18.164;2022-09-01T12:57:28;0.40;;;0.40;;
57333;SDS011;43165;50.998;18.164;2022-09-01T13:02:35;1.90;;;0.50;;
57333;SDS011;43165;50.998;18.164;2022-09-01T13:05:20;1.70;;;0.40;;
57333;SDS011;43165;50.998;18.164;2022-09-01T13:07:48;0.70;;;0.50;;
57333;SDS011;43165;50.998;18.164;2022-09-01T13:10:18;1.30;;;0.50;;
57333;SDS011;43165;50.998;18.164;2022-09-01T13:12:44;1.00;;;0.50;;
57333;SDS011;43165;50.998;18.164;2022-09-01T13:15:10;1.60;;;0.40;;
57333;SDS011;43165;50.998;18.164;2022-09-01T13:17:36;34.90;;;21.80;;
57333;SDS011;43165;50.998;18.164;2022-09-01T13:20:05;4.80;;;2.40;;
57333;SDS011;43165;50.998;18.164;2022-09-01T13:22:32;6.50;;;2.00;;
57333;SDS011;43165;50.998;18.164;2022-09-01T13:24:59;3.90;;;3.50;;
57333;SDS011;43165;50.998;18.164;2022-09-01T13:27:25;1.90;;;0.90;;
57333;SDS011;43165;50.998;18.164;2022-09-01T13:29:51;2.80;;;1.00;;
57333;SDS011;43165;50.998;18.164;2022-09-01T13:32:17;1.20;;;0.40;;
57333;SDS011;43165;50.998;18.164;2022-09-01T13:34:43;3.30;;;0.40;;
57333;SDS011;43165;50.998;18.164;2022-09-01T13:37:08;0.90;;;0.40;;
57333;SDS011;43165;50.998;18.164;2022-09-01T13:39:34;0.60;;;0.40;;
57333;SDS011;43165;50.998;18.164;2022-09-01T13:41:59;0.80;;;0.30;;
57333;SDS011;43165;50.998;18.164;2022-09-01T13:44:25;0.80;;;0.50;;
57333;SDS011;43165;50.998;18.164;2022-09-01T13:46:50;3.50;;;0.40;;
57333;SDS011;43165;50.998;18.164;2022-09-01T13:49:16;1.60;;;0.50;;
57333;SDS011;43165;50.998;18.164;2022-09-01T13:51:41;1.20;;;0.50;;
57333;SDS011;43165;50.998;18.164;2022-09-01T13:54:07;2.70;;;0.60;;
57333;SDS011;43165;50.998;18.164;2022-09-01T13:56:33;0.50;;;0.30;;
57333;SDS011;43165;50.998;18.164;2022-09-01T13:58:59;0.60;;;0.40;;
57333;SDS011;43165;50.998;18.164;2022-09-01T14:01:25;1.80;;;0.30;;
57333;SDS011;43165;50.998;18.164;2022-09-01T14:03:50;0.80;;;0.40;;
57333;SDS011;43165;50.998;18.164;2022-09-01T14:06:16;1.10;;;0.40;;
57333;SDS011;43165;50.998;18.164;2022-09-01T14:08:42;1.90;;;0.60;;
57333;SDS011;43165;50.998;18.164;2022-09-01T14:11:14;1.60;;;0.30;;
57333;SDS011;43165;50.998;18.164;2022-09-01T14:13:41;0.70;;;0.30;;
57333;SDS011;43165;50.998;18.164;2022-09-01T14:16:10;0.60;;;0.40;;
57333;SDS011;43165;50.998;18.164;2022-09-01T14:18:36;1.40;;;0.50;;
57333;SDS011;43165;50.998;18.164;2022-09-01T14:21:03;0.60;;;0.40;;
57333;SDS011;43165;50.998;18.164;2022-09-01T14:23:29;1.40;;;0.60;;
57333;SDS011;43165;50.998;18.164;2022-09-01T14:25:54;1.20;;;0.40;;
57333;SDS011;43165;50.998;18.164;2022-09-01T14:28:20;0.90;;;0.40;;
57333;SDS011;43165;50.998;18.164;2022-09-01T14:30:46;0.90;;;0.50;;
57333;SDS011;43165;50.998;18.164;2022-09-01T14:33:13;0.80;;;0.50;;
57333;SDS011;43165;50.998;18.164;2022-09-01T14:35:39;3.70;;;0.60;;
57333;SDS011;43165;50.998;18.164;2022-09-01T14:38:06;1.90;;;0.40;;
57333;SDS011;43165;50.998;18.164;2022-09-01T14:40:33;1.70;;;0.40;;
57333;SDS011;43165;50.998;18.164;2022-09-01T14:43:01;2.10;;;0.40;;
57333;SDS011;43165;50.998;18.164;2022-09-01T14:45:27;1.30;;;0.50;;
57333;SDS011;43165;50.998;18.164;2022-09-01T14:47:54;3.00;;;0.60;;
57333;SDS011;43165;50.998;18.164;2022-09-01T14:50:23;1.60;;;0.40;;
57333;SDS011;43165;50.998;18.164;2022-09-01T14:52:50;2.10;;;0.60;;
57333;SDS011;43165;50.998;18.164;2022-09-01T14:55:19;1.90;;;0.40;;
57333;SDS011;43165;50.998;18.164;2022-09-01T14:57:46;2.10;;;0.30;;
57333;SDS011;43165;50.998;18.164;2022-09-01T15:00:11;1.60;;;0.60;;
57333;SDS011;43165;50.998;18.164;2022-09-01T15:02:40;1.50;;;0.40;;
57333;SDS011;43165;50.998;18.164;2022-09-01T15:05:08;1.60;;;0.40;;
57333;SDS011;43165;50.998;18.164;2022-09-01T15:07:34;3.70;;;0.40;;
57333;SDS011;43165;50.998;18.164;2022-09-01T15:10:00;2.00;;;0.40;;
57333;SDS011;43165;50.998;18.164;2022-09-01T15:12:26;0.80;;;0.50;;
57333;SDS011;43165;50.998;18.164;2022-09-01T15:14:56;0.80;;;0.40;;
57333;SDS011;43165;50.998;18.164;2022-09-01T15:17:26;1.60;;;0.40;;
57333;SDS011;43165;50.998;18.164;2022-09-01T15:19:52;1.40;;;0.80;;
57333;SDS011;43165;50.998;18.164;2022-09-01T15:22:18;8.90;;;1.90;;
57333;SDS011;43165;50.998;18.164;2022-09-01T15:24:43;4.00;;;1.80;;
57333;SDS011;43165;50.998;18.164;2022-09-01T15:27:09;4.10;;;0.80;;
57333;SDS011;43165;50.998;18.164;2022-09-01T15:29:35;1.50;;;0.40;;
57333;SDS011;43165;50.998;18.164;2022-09-01T15:32:12;0.70;;;0.40;;
57333;SDS011;43165;50.998;18.164;2022-09-01T15:34:40;1.00;;;0.30;;
57333;SDS011;43165;50.998;18.164;2022-09-01T15:37:06;1.90;;;0.70;;
57333;SDS011;43165;50.998;18.164;2022-09-01T15:39:33;3.70;;;0.90;;
57333;SDS011;43165;50.998;18.164;2022-09-01T15:41:59;1.30;;;0.60;;
57333;SDS011;43165;50.998;18.164;2022-09-01T15:44:27;1.00;;;0.60;;
57333;SDS011;43165;50.998;18.164;2022-09-01T15:46:53;2.40;;;0.30;;
57333;SDS011;43165;50.998;18.164;2022-09-01T15:49:19;2.00;;;0.30;;
57333;SDS011;43165;50.998;18.164;2022-09-01T15:51:44;1.00;;;0.30;;
57333;SDS011;43165;50.998;18.164;2022-09-01T15:54:11;1.90;;;0.60;;
57333;SDS011;43165;50.998;18.164;2022-09-01T15:56:40;0.90;;;0.40;;
57333;SDS011;43165;50.998;18.164;2022-09-01T15:59:07;5.80;;;0.40;;
57333;SDS011;43165;50.998;18.164;2022-09-01T16:01:37;2.50;;;0.50;;
57333;SDS011;43165;50.998;18.164;2022-09-01T16:04:06;3.10;;;0.50;;